Dobrodošli na spletni strani vremenske postaje Senovo. Vse informacije so informativnega značaja, saj vremenska postaja ni del državne mreže meteoroloških postaj. AKTUALNIH OBVESTIL NI.


Sneg/Led Od: 22-02-2018 00:00 Do: 23-02-2018 23:59 Opozorilo za: Sneg/Led Stopnja: Rumena info button
Veter Od: 22-02-2018 00:00 Do: 23:59 Opozorilo za: Veter Stopnja: Rumena info button

Pogled proti Armezu več informacij Pogled proti Armezu


Lisca več informacij Lisca


Radar strel več informacij blitzortung!


opozorilo za sneg/led več informacij rain snow radar


Obiščite še:

Template documentation
and downloads

And another site



Weather Underground, zgodovina - Tekstovno

Dnevni povzetek za Februar 22, 2018 Enote:  Obe    Angleško   Metrično
« Predhodni Dan
Naslednji Dan »
Dnevni Tedenski Mesečni Letni Po meri
  Trenutno: Višja: Nižja: Povprečje:
Temperatura: 0.0 °F /  -17.8 °C TemperatureC °F /  -17.8 °C -1.0 °F /  -18.3 °C -0 °F /  -17.8 °C
Točka rosišča: -4.3 °F /  -20.2 °C DewpointC °F /  -17.8 °C -4.3 °F /  -20.2 °C -3.2 °F /  -19.6 °C
Vlažnost: 73 % Humidity % 73 % 79 %
Hitrost vetra: 7.4 mph /  11.9 km/h WindSpeedKMH mph /  0 km/h - 8.1 mph /  13 km/h
Sunki vetra: 21.2 mph /  34.1 km/h WindSpeedGustKMH mph /  0 km/h - -
Veter:NE - - ENE
Zračni tlak: 1013.1 in /  34303.6 hPa PressurehPa in /  0 hPa 1009.0 in /  34164.7 hPa -
Padavine: 5.6 in /  142.24 mm      
Historical Graphs
 
 
Tabelarni podarki za Februar 22, 2018
Čas Temperatura Točka rosišča Zračni tlak Veter Hitrost vetra Sunki vetra Vlažnost Intenziteta padavin (urna)
TemperatureC °F /  -17.8 °C DewpointC °F /  -17.8 °C PressurehPa in /  0 hPa Calm     Humidity % HourlyPrecipMM in /  0 mm
00:03 0.1 °F /  -17.7 °C -2.8 °F /  -19.3 °C 1012.1 in /  34269.7 hPa NE 11.1 mph /  17.9 km/h 20.9 mph /  33.6 km/h 81 % 0.3 in /  7.62 mm
00:08 0.2 °F /  -17.7 °C -2.7 °F /  -19.3 °C 1012.1 in /  34269.7 hPa NE 10.6 mph /  17.1 km/h 22.4 mph /  36 km/h 81 % 0.3 in /  7.62 mm
00:13 0.2 °F /  -17.7 °C -2.7 °F /  -19.3 °C 1012.1 in /  34269.7 hPa NE 11.6 mph /  18.7 km/h 22.4 mph /  36 km/h 81 % 0.3 in /  7.62 mm
00:18 0.2 °F /  -17.7 °C -2.7 °F /  -19.3 °C 1012.1 in /  34269.7 hPa NE 12.1 mph /  19.5 km/h 24.8 mph /  39.9 km/h 81 % 0.3 in /  7.62 mm
00:23 0.2 °F /  -17.7 °C -2.7 °F /  -19.3 °C 1012.1 in /  34269.7 hPa NE 10.8 mph /  17.4 km/h 24.8 mph /  39.9 km/h 81 % 0.3 in /  7.62 mm
00:28 0.2 °F /  -17.7 °C -2.7 °F /  -19.3 °C 1012.1 in /  34269.7 hPa ENE 9.3 mph /  15 km/h 19.8 mph /  31.9 km/h 81 % 0.3 in /  7.62 mm
00:33 0.2 °F /  -17.7 °C -2.7 °F /  -19.3 °C 1012.1 in /  34269.7 hPa ENE 10.0 mph /  16.1 km/h 19.8 mph /  31.9 km/h 81 % 0.3 in /  7.62 mm
00:38 0.1 °F /  -17.7 °C -2.8 °F /  -19.3 °C 1012.1 in /  34269.7 hPa ENE 9.3 mph /  15 km/h 16.9 mph /  27.2 km/h 81 % 0.3 in /  7.62 mm
00:43 0.1 °F /  -17.7 °C -2.8 °F /  -19.3 °C 1012.1 in /  34269.7 hPa ENE 8.8 mph /  14.2 km/h 14.0 mph /  22.5 km/h 81 % 0.3 in /  7.62 mm
00:48 0.1 °F /  -17.7 °C -2.8 °F /  -19.3 °C 1012.1 in /  34269.7 hPa NE 9.7 mph /  15.6 km/h 25.9 mph /  41.7 km/h 81 % 0.3 in /  7.62 mm
00:53 0.0 °F /  -17.8 °C -3.1 °F /  -19.5 °C 1012.1 in /  34269.7 hPa ENE 8.0 mph /  12.9 km/h 25.9 mph /  41.7 km/h 80 % 0.3 in /  7.62 mm
00:58 -0.1 °F /  -17.8 °C -3.1 °F /  -19.5 °C 1012.1 in /  34269.7 hPa ENE 6.9 mph /  11.1 km/h 17.2 mph /  27.7 km/h 80 % 0.3 in /  7.62 mm
01:03 -0.1 °F /  -17.8 °C -3.1 °F /  -19.5 °C 1012.1 in /  34269.7 hPa ENE 6.6 mph /  10.6 km/h 17.2 mph /  27.7 km/h 80 % 0.0 in /  0 mm
01:08 -0.1 °F /  -17.8 °C -3.1 °F /  -19.5 °C 1012.1 in /  34269.7 hPa ENE 6.1 mph /  9.8 km/h 11.9 mph /  19.2 km/h 80 % 0.3 in /  7.62 mm
01:13 -0.1 °F /  -17.8 °C -2.9 °F /  -19.4 °C 1012.1 in /  34269.7 hPa East 7.1 mph /  11.4 km/h 13.7 mph /  22 km/h 81 % 0.3 in /  7.62 mm
01:18 -0.1 °F /  -17.8 °C -2.9 °F /  -19.4 °C 1012.1 in /  34269.7 hPa ENE 7.7 mph /  12.4 km/h 15.8 mph /  25.4 km/h 81 % 0.3 in /  7.62 mm
01:23 -0.1 °F /  -17.8 °C -2.9 °F /  -19.4 °C 1011.1 in /  34235.8 hPa ENE 7.9 mph /  12.7 km/h 16.6 mph /  26.7 km/h 81 % 0.3 in /  7.62 mm
01:28 -0.1 °F /  -17.8 °C -2.9 °F /  -19.4 °C 1011.1 in /  34235.8 hPa ENE 8.0 mph /  12.9 km/h 16.6 mph /  26.7 km/h 81 % 0.3 in /  7.62 mm
01:33 -0.1 °F /  -17.8 °C -2.9 °F /  -19.4 °C 1011.1 in /  34235.8 hPa ENE 6.6 mph /  10.6 km/h 12.6 mph /  20.3 km/h 81 % 0.3 in /  7.62 mm
01:38 -0.1 °F /  -17.8 °C -2.9 °F /  -19.4 °C 1011.1 in /  34235.8 hPa ENE 6.4 mph /  10.3 km/h 15.8 mph /  25.4 km/h 81 % 0.3 in /  7.62 mm
01:43 -0.1 °F /  -17.8 °C -2.9 °F /  -19.4 °C 1011.1 in /  34235.8 hPa ENE 9.5 mph /  15.3 km/h 18.0 mph /  29 km/h 81 % 0.3 in /  7.62 mm
01:48 -0.2 °F /  -17.9 °C -3.1 °F /  -19.5 °C 1011.1 in /  34235.8 hPa ENE 13.4 mph /  21.6 km/h 25.6 mph /  41.2 km/h 81 % 0.5 in /  12.7 mm
01:53 -0.2 °F /  -17.9 °C -3.1 °F /  -19.5 °C 1011.1 in /  34235.8 hPa ENE 13.7 mph /  22 km/h 25.6 mph /  41.2 km/h 81 % 0.5 in /  12.7 mm
01:58 -0.1 °F /  -17.8 °C -2.9 °F /  -19.4 °C 1011.1 in /  34235.8 hPa ENE 10.8 mph /  17.4 km/h 20.9 mph /  33.6 km/h 81 % 0.5 in /  12.7 mm
02:03 -0.1 °F /  -17.8 °C -2.9 °F /  -19.4 °C 1011.1 in /  34235.8 hPa NE 10.3 mph /  16.6 km/h 21.6 mph /  34.8 km/h 81 % 0.5 in /  12.7 mm
02:08 -0.1 °F /  -17.8 °C -2.9 °F /  -19.4 °C 1010.0 in /  34198.6 hPa NE 10.6 mph /  17.1 km/h 23.3 mph /  37.5 km/h 81 % 0.3 in /  7.62 mm
02:13 -0.1 °F /  -17.8 °C -2.9 °F /  -19.4 °C 1010.0 in /  34198.6 hPa NE 12.4 mph /  20 km/h 28.8 mph /  46.3 km/h 81 % 0.3 in /  7.62 mm
02:18 -0.1 °F /  -17.8 °C -2.9 °F /  -19.4 °C 1010.0 in /  34198.6 hPa NE 14.3 mph /  23 km/h 28.8 mph /  46.3 km/h 81 % 0.3 in /  7.62 mm
02:23 -0.1 °F /  -17.8 °C -2.9 °F /  -19.4 °C 1011.1 in /  34235.8 hPa ENE 13.4 mph /  21.6 km/h 27.0 mph /  43.5 km/h 81 % 0.3 in /  7.62 mm
02:28 -0.1 °F /  -17.8 °C -2.9 °F /  -19.4 °C 1011.1 in /  34235.8 hPa ENE 11.7 mph /  18.8 km/h 20.9 mph /  33.6 km/h 81 % 0.3 in /  7.62 mm
02:38 -0.1 °F /  -17.8 °C -2.9 °F /  -19.4 °C 1011.1 in /  34235.8 hPa ENE 10.9 mph /  17.5 km/h 23.3 mph /  37.5 km/h 81 % 0.3 in /  7.62 mm
02:43 -0.1 °F /  -17.8 °C -2.9 °F /  -19.4 °C 1011.1 in /  34235.8 hPa ENE 10.8 mph /  17.4 km/h 20.1 mph /  32.3 km/h 81 % 0.3 in /  7.62 mm
02:48 -0.1 °F /  -17.8 °C -2.9 °F /  -19.4 °C 1011.1 in /  34235.8 hPa NE 10.1 mph /  16.3 km/h 20.1 mph /  32.3 km/h 81 % 0.3 in /  7.62 mm
02:53 -0.1 °F /  -17.8 °C -2.9 °F /  -19.4 °C 1011.1 in /  34235.8 hPa NE 9.7 mph /  15.6 km/h 23.8 mph /  38.3 km/h 81 % 0.3 in /  7.62 mm
02:58 -0.1 °F /  -17.8 °C -2.9 °F /  -19.4 °C 1011.1 in /  34235.8 hPa NE 10.1 mph /  16.3 km/h 23.8 mph /  38.3 km/h 81 % 0.3 in /  7.62 mm
03:03 -0.1 °F /  -17.8 °C -3.1 °F /  -19.5 °C 1011.1 in /  34235.8 hPa NE 12.2 mph /  19.6 km/h 21.2 mph /  34.1 km/h 80 % 0.3 in /  7.62 mm
03:08 -0.1 °F /  -17.8 °C -3.1 °F /  -19.5 °C 1011.1 in /  34235.8 hPa ENE 11.9 mph /  19.2 km/h 21.6 mph /  34.8 km/h 80 % 0.3 in /  7.62 mm
03:13 -0.1 °F /  -17.8 °C -3.1 °F /  -19.5 °C 1011.1 in /  34235.8 hPa NE 10.1 mph /  16.3 km/h 21.6 mph /  34.8 km/h 80 % 0.3 in /  7.62 mm
03:18 -0.1 °F /  -17.8 °C -3.1 °F /  -19.5 °C 1011.1 in /  34235.8 hPa NE 9.8 mph /  15.8 km/h 27.4 mph /  44.1 km/h 80 % 0.3 in /  7.62 mm
03:23 -0.1 °F /  -17.8 °C -3.1 °F /  -19.5 °C 1010.0 in /  34198.6 hPa NE 10.0 mph /  16.1 km/h 27.4 mph /  44.1 km/h 80 % 0.3 in /  7.62 mm
03:28 -0.1 °F /  -17.8 °C -3.1 °F /  -19.5 °C 1010.0 in /  34198.6 hPa NE 9.5 mph /  15.3 km/h 17.7 mph /  28.5 km/h 80 % 0.3 in /  7.62 mm
03:33 -0.1 °F /  -17.8 °C -3.1 °F /  -19.5 °C 1010.0 in /  34198.6 hPa NNE 9.3 mph /  15 km/h 19.8 mph /  31.9 km/h 80 % 0.3 in /  7.62 mm
03:38 -0.1 °F /  -17.8 °C -3.1 °F /  -19.5 °C 1010.0 in /  34198.6 hPa NNE 10.0 mph /  16.1 km/h 20.6 mph /  33.2 km/h 80 % 0.3 in /  7.62 mm
03:43 -0.2 °F /  -17.9 °C -3.2 °F /  -19.6 °C 1010.0 in /  34198.6 hPa NE 8.7 mph /  14 km/h 20.6 mph /  33.2 km/h 80 % 0.3 in /  7.62 mm
03:48 -0.2 °F /  -17.9 °C -3.2 °F /  -19.6 °C 1010.0 in /  34198.6 hPa NE 8.4 mph /  13.5 km/h 19.8 mph /  31.9 km/h 80 % 0.3 in /  7.62 mm
03:53 -0.3 °F /  -17.9 °C -3.3 °F /  -19.6 °C 1010.0 in /  34198.6 hPa NE 8.7 mph /  14 km/h 20.9 mph /  33.6 km/h 80 % 0.3 in /  7.62 mm
03:58 -0.4 °F /  -18 °C -3.6 °F /  -19.8 °C 1010.0 in /  34198.6 hPa NE 9.7 mph /  15.6 km/h 20.9 mph /  33.6 km/h 79 % 0.3 in /  7.62 mm
04:03 -0.4 °F /  -18 °C -3.6 °F /  -19.8 °C 1010.0 in /  34198.6 hPa ENE 10.3 mph /  16.6 km/h 16.9 mph /  27.2 km/h 79 % 0.3 in /  7.62 mm
04:08 -0.5 °F /  -18.1 °C -3.7 °F /  -19.8 °C 1009.0 in /  34164.7 hPa ENE 9.7 mph /  15.6 km/h 17.2 mph /  27.7 km/h 79 % 0.3 in /  7.62 mm
04:14 -0.5 °F /  -18.1 °C -3.7 °F /  -19.8 °C 1009.0 in /  34164.7 hPa NE 9.8 mph /  15.8 km/h 20.6 mph /  33.2 km/h 79 % 0.3 in /  7.62 mm
04:19 -0.5 °F /  -18.1 °C -3.7 °F /  -19.8 °C 1009.0 in /  34164.7 hPa NE 11.3 mph /  18.2 km/h 20.6 mph /  33.2 km/h 79 % 0.3 in /  7.62 mm
04:24 -0.5 °F /  -18.1 °C -3.7 °F /  -19.8 °C 1010.0 in /  34198.6 hPa NE 12.4 mph /  20 km/h 23.8 mph /  38.3 km/h 79 % 0.3 in /  7.62 mm
04:29 -0.5 °F /  -18.1 °C -3.7 °F /  -19.8 °C 1010.0 in /  34198.6 hPa NE 10.9 mph /  17.5 km/h 23.8 mph /  38.3 km/h 79 % 0.3 in /  7.62 mm
04:34 -0.5 °F /  -18.1 °C -3.7 °F /  -19.8 °C 1010.0 in /  34198.6 hPa NE 8.4 mph /  13.5 km/h 16.3 mph /  26.2 km/h 79 % 0.3 in /  7.62 mm
04:39 -0.6 °F /  -18.1 °C -3.8 °F /  -19.9 °C 1009.0 in /  34164.7 hPa NE 8.5 mph /  13.7 km/h 20.1 mph /  32.3 km/h 79 % 0.3 in /  7.62 mm
04:44 -0.6 °F /  -18.1 °C -3.8 °F /  -19.9 °C 1009.0 in /  34164.7 hPa NE 9.2 mph /  14.8 km/h 20.1 mph /  32.3 km/h 79 % 0.3 in /  7.62 mm
04:49 -0.6 °F /  -18.1 °C -3.8 °F /  -19.9 °C 1009.0 in /  34164.7 hPa NE 9.2 mph /  14.8 km/h 24.8 mph /  39.9 km/h 79 % 0.5 in /  12.7 mm
04:54 -0.6 °F /  -18.1 °C -3.8 °F /  -19.9 °C 1009.0 in /  34164.7 hPa NE 9.5 mph /  15.3 km/h 24.8 mph /  39.9 km/h 79 % 0.5 in /  12.7 mm
04:59 -0.7 °F /  -18.2 °C -3.9 °F /  -19.9 °C 1009.0 in /  34164.7 hPa NE 9.3 mph /  15 km/h 15.8 mph /  25.4 km/h 79 % 0.3 in /  7.62 mm
05:04 -0.7 °F /  -18.2 °C -3.9 °F /  -19.9 °C 1009.0 in /  34164.7 hPa NE 7.6 mph /  12.2 km/h 13.0 mph /  20.9 km/h 79 % 0.3 in /  7.62 mm
05:09 -0.7 °F /  -18.2 °C -3.9 °F /  -19.9 °C 1010.0 in /  34198.6 hPa ENE 6.3 mph /  10.1 km/h 10.5 mph /  16.9 km/h 79 % 0.3 in /  7.62 mm
05:14 -0.7 °F /  -18.2 °C -3.9 °F /  -19.9 °C 1010.0 in /  34198.6 hPa ENE 6.6 mph /  10.6 km/h 11.9 mph /  19.2 km/h 79 % 0.5 in /  12.7 mm
05:19 -0.7 °F /  -18.2 °C -3.7 °F /  -19.8 °C 1010.0 in /  34198.6 hPa NE 5.3 mph /  8.5 km/h 11.9 mph /  19.2 km/h 80 % 0.5 in /  12.7 mm
05:24 -0.7 °F /  -18.2 °C -3.7 °F /  -19.8 °C 1010.0 in /  34198.6 hPa NNE 3.9 mph /  6.3 km/h 11.9 mph /  19.2 km/h 80 % 0.3 in /  7.62 mm
05:29 -0.7 °F /  -18.2 °C -3.7 °F /  -19.8 °C 1010.0 in /  34198.6 hPa NE 5.8 mph /  9.3 km/h 14.3 mph /  23 km/h 80 % 0.3 in /  7.62 mm
05:34 -0.7 °F /  -18.2 °C -3.7 °F /  -19.8 °C 1010.0 in /  34198.6 hPa ENE 6.9 mph /  11.1 km/h 14.3 mph /  23 km/h 80 % 0.5 in /  12.7 mm
05:39 -0.7 °F /  -18.2 °C -3.7 °F /  -19.8 °C 1010.0 in /  34198.6 hPa ENE 6.1 mph /  9.8 km/h 9.7 mph /  15.6 km/h 80 % 0.5 in /  12.7 mm
05:44 -0.7 °F /  -18.2 °C -3.7 °F /  -19.8 °C 1010.0 in /  34198.6 hPa NE 7.4 mph /  11.9 km/h 17.7 mph /  28.5 km/h 80 % 0.5 in /  12.7 mm
05:49 -0.8 °F /  -18.2 °C -3.8 °F /  -19.9 °C 1010.0 in /  34198.6 hPa NE 6.6 mph /  10.6 km/h 17.7 mph /  28.5 km/h 80 % 0.5 in /  12.7 mm
05:54 -0.8 °F /  -18.2 °C -3.8 °F /  -19.9 °C 1010.0 in /  34198.6 hPa ENE 5.5 mph /  8.9 km/h 15.4 mph /  24.8 km/h 80 % 0.5 in /  12.7 mm
05:59 -0.8 °F /  -18.2 °C -3.8 °F /  -19.9 °C 1010.0 in /  34198.6 hPa ENE 5.8 mph /  9.3 km/h 10.5 mph /  16.9 km/h 80 % 0.5 in /  12.7 mm
06:04 -0.9 °F /  -18.3 °C -3.9 °F /  -19.9 °C 1010.0 in /  34198.6 hPa NE 6.0 mph /  9.7 km/h 12.6 mph /  20.3 km/h 80 % 0.8 in /  20.32 mm
06:09 -0.9 °F /  -18.3 °C -3.9 °F /  -19.9 °C 1010.0 in /  34198.6 hPa NE 7.6 mph /  12.2 km/h 12.6 mph /  20.3 km/h 80 % 0.8 in /  20.32 mm
06:14 -0.9 °F /  -18.3 °C -3.9 °F /  -19.9 °C 1010.0 in /  34198.6 hPa NNE 7.9 mph /  12.7 km/h 19.8 mph /  31.9 km/h 80 % 0.5 in /  12.7 mm
06:19 -0.8 °F /  -18.2 °C -3.8 °F /  -19.9 °C 1010.0 in /  34198.6 hPa ENE 7.9 mph /  12.7 km/h 20.6 mph /  33.2 km/h 80 % 0.8 in /  20.32 mm
06:24 -0.9 °F /  -18.3 °C -3.9 °F /  -19.9 °C 1009.0 in /  34164.7 hPa ENE 8.8 mph /  14.2 km/h 20.6 mph /  33.2 km/h 80 % 0.8 in /  20.32 mm
06:29 -0.8 °F /  -18.2 °C -3.8 °F /  -19.9 °C 1009.0 in /  34164.7 hPa ENE 7.4 mph /  11.9 km/h 15.8 mph /  25.4 km/h 80 % 0.5 in /  12.7 mm
06:34 -0.8 °F /  -18.2 °C -3.8 °F /  -19.9 °C 1009.0 in /  34164.7 hPa ENE 7.4 mph /  11.9 km/h 16.6 mph /  26.7 km/h 80 % 0.5 in /  12.7 mm
06:39 -0.8 °F /  -18.2 °C -3.7 °F /  -19.8 °C 1009.0 in /  34164.7 hPa ENE 9.8 mph /  15.8 km/h 16.6 mph /  26.7 km/h 81 % 0.5 in /  12.7 mm
06:44 -0.8 °F /  -18.2 °C -3.7 °F /  -19.8 °C 1009.0 in /  34164.7 hPa ENE 10.5 mph /  16.9 km/h 19.8 mph /  31.9 km/h 81 % 0.5 in /  12.7 mm
06:49 -0.8 °F /  -18.2 °C -3.7 °F /  -19.8 °C 1009.0 in /  34164.7 hPa ENE 9.3 mph /  15 km/h 19.8 mph /  31.9 km/h 81 % 0.5 in /  12.7 mm
06:54 -0.8 °F /  -18.2 °C -3.7 °F /  -19.8 °C 1009.0 in /  34164.7 hPa ENE 8.7 mph /  14 km/h 17.7 mph /  28.5 km/h 81 % 0.5 in /  12.7 mm
06:59 -0.8 °F /  -18.2 °C -3.7 °F /  -19.8 °C 1009.0 in /  34164.7 hPa ENE 9.0 mph /  14.5 km/h 19.8 mph /  31.9 km/h 81 % 0.5 in /  12.7 mm
07:04 -0.8 °F /  -18.2 °C -3.7 °F /  -19.8 °C 1009.0 in /  34164.7 hPa NE 9.0 mph /  14.5 km/h 19.8 mph /  31.9 km/h 81 % 0.5 in /  12.7 mm
07:09 -0.9 °F /  -18.3 °C -3.8 °F /  -19.9 °C 1010.0 in /  34198.6 hPa NNE 7.2 mph /  11.6 km/h 19.8 mph /  31.9 km/h 81 % 0.5 in /  12.7 mm
07:14 -0.9 °F /  -18.3 °C -3.8 °F /  -19.9 °C 1010.0 in /  34198.6 hPa ENE 5.1 mph /  8.2 km/h 16.6 mph /  26.7 km/h 81 % 0.5 in /  12.7 mm
07:19 -1.0 °F /  -18.3 °C -3.7 °F /  -19.8 °C 1010.0 in /  34198.6 hPa East 5.0 mph /  8 km/h 16.6 mph /  26.7 km/h 82 % 0.8 in /  20.32 mm
07:24 -0.9 °F /  -18.3 °C -3.8 °F /  -19.9 °C 1011.1 in /  34235.8 hPa ENE 7.1 mph /  11.4 km/h 15.1 mph /  24.3 km/h 81 % 0.8 in /  20.32 mm
07:29 -0.9 °F /  -18.3 °C -3.6 °F /  -19.8 °C 1011.1 in /  34235.8 hPa ENE 7.9 mph /  12.7 km/h 15.1 mph /  24.3 km/h 82 % 0.8 in /  20.32 mm
07:34 -0.9 °F /  -18.3 °C -3.6 °F /  -19.8 °C 1011.1 in /  34235.8 hPa East 6.6 mph /  10.6 km/h 13.0 mph /  20.9 km/h 82 % 0.8 in /  20.32 mm
07:39 -0.9 °F /  -18.3 °C -3.6 °F /  -19.8 °C 1011.1 in /  34235.8 hPa East 6.1 mph /  9.8 km/h 13.0 mph /  20.9 km/h 82 % 0.8 in /  20.32 mm
07:44 -0.9 °F /  -18.3 °C -3.6 °F /  -19.8 °C 1011.1 in /  34235.8 hPa ENE 6.1 mph /  9.8 km/h 12.2 mph /  19.6 km/h 82 % 0.8 in /  20.32 mm
07:49 -0.9 °F /  -18.3 °C -3.6 °F /  -19.8 °C 1011.1 in /  34235.8 hPa ENE 7.1 mph /  11.4 km/h 17.2 mph /  27.7 km/h 82 % 1.0 in /  25.4 mm
07:54 -0.9 °F /  -18.3 °C -3.6 °F /  -19.8 °C 1011.1 in /  34235.8 hPa ENE 6.0 mph /  9.7 km/h 17.2 mph /  27.7 km/h 82 % 0.8 in /  20.32 mm
07:59 -0.9 °F /  -18.3 °C -3.6 °F /  -19.8 °C 1011.1 in /  34235.8 hPa East 4.3 mph /  6.9 km/h 12.6 mph /  20.3 km/h 82 % 1.0 in /  25.4 mm
08:04 -0.8 °F /  -18.2 °C -3.3 °F /  -19.6 °C 1011.1 in /  34235.8 hPa NE 4.8 mph /  7.7 km/h 12.6 mph /  20.3 km/h 83 % 1.0 in /  25.4 mm
08:09 -0.7 °F /  -18.2 °C -3.2 °F /  -19.6 °C 1011.1 in /  34235.8 hPa ENE 4.7 mph /  7.6 km/h 11.9 mph /  19.2 km/h 83 % 1.0 in /  25.4 mm
08:14 -0.7 °F /  -18.2 °C -3.2 °F /  -19.6 °C 1011.1 in /  34235.8 hPa East 4.8 mph /  7.7 km/h 16.9 mph /  27.2 km/h 83 % 1.0 in /  25.4 mm
08:19 -0.6 °F /  -18.1 °C -3.1 °F /  -19.5 °C 1011.1 in /  34235.8 hPa ENE 7.1 mph /  11.4 km/h 16.9 mph /  27.2 km/h 83 % 0.8 in /  20.32 mm
08:24 -0.5 °F /  -18.1 °C -3.1 °F /  -19.5 °C 1011.1 in /  34235.8 hPa ENE 8.8 mph /  14.2 km/h 23.8 mph /  38.3 km/h 83 % 0.8 in /  20.32 mm
08:29 -0.5 °F /  -18.1 °C -3.1 °F /  -19.5 °C 1011.1 in /  34235.8 hPa ENE 7.9 mph /  12.7 km/h 23.8 mph /  38.3 km/h 83 % 0.8 in /  20.32 mm
08:34 -0.5 °F /  -18.1 °C -3.1 °F /  -19.5 °C 1011.1 in /  34235.8 hPa East 5.5 mph /  8.9 km/h 11.6 mph /  18.7 km/h 83 % 0.8 in /  20.32 mm
08:39 -0.4 °F /  -18 °C -2.9 °F /  -19.4 °C 1011.1 in /  34235.8 hPa East 4.3 mph /  6.9 km/h 11.6 mph /  18.7 km/h 83 % 0.5 in /  12.7 mm
08:44 -0.3 °F /  -17.9 °C -2.8 °F /  -19.3 °C 1011.1 in /  34235.8 hPa East 3.9 mph /  6.3 km/h 9.7 mph /  15.6 km/h 83 % 0.8 in /  20.32 mm
08:49 -0.2 °F /  -17.9 °C -2.7 °F /  -19.3 °C 1011.1 in /  34235.8 hPa ENE 3.9 mph /  6.3 km/h 9.0 mph /  14.5 km/h 83 % 0.8 in /  20.32 mm
08:54 -0.2 °F /  -17.9 °C -2.6 °F /  -19.2 °C 1011.1 in /  34235.8 hPa East 4.0 mph /  6.4 km/h 9.0 mph /  14.5 km/h 84 % 0.8 in /  20.32 mm
08:59 -0.1 °F /  -17.8 °C -2.5 °F /  -19.2 °C 1011.1 in /  34235.8 hPa East 5.0 mph /  8 km/h 10.8 mph /  17.4 km/h 84 % 0.8 in /  20.32 mm
09:04 -0.2 °F /  -17.9 °C -2.6 °F /  -19.2 °C 1011.1 in /  34235.8 hPa East 7.6 mph /  12.2 km/h 13.7 mph /  22 km/h 84 % 0.8 in /  20.32 mm
09:09 -0.1 °F /  -17.8 °C -2.5 °F /  -19.2 °C 1010.0 in /  34198.6 hPa East 7.9 mph /  12.7 km/h 13.7 mph /  22 km/h 84 % 0.5 in /  12.7 mm
09:14 -0.1 °F /  -17.8 °C -2.5 °F /  -19.2 °C 1010.0 in /  34198.6 hPa East 7.6 mph /  12.2 km/h 11.6 mph /  18.7 km/h 84 % 0.8 in /  20.32 mm
09:19 -0.2 °F /  -17.9 °C -2.7 °F /  -19.3 °C 1010.0 in /  34198.6 hPa East 9.2 mph /  14.8 km/h 17.2 mph /  27.7 km/h 83 % 0.8 in /  20.32 mm
09:24 -0.2 °F /  -17.9 °C -2.7 °F /  -19.3 °C 1011.1 in /  34235.8 hPa East 10.5 mph /  16.9 km/h 17.2 mph /  27.7 km/h 83 % 0.8 in /  20.32 mm
09:29 -0.2 °F /  -17.9 °C -2.7 °F /  -19.3 °C 1011.1 in /  34235.8 hPa ENE 9.2 mph /  14.8 km/h 16.6 mph /  26.7 km/h 83 % 0.5 in /  12.7 mm
09:34 -0.2 °F /  -17.9 °C -2.7 °F /  -19.3 °C 1011.1 in /  34235.8 hPa ENE 7.6 mph /  12.2 km/h 14.0 mph /  22.5 km/h 83 % 0.8 in /  20.32 mm
09:39 -0.3 °F /  -17.9 °C -2.8 °F /  -19.3 °C 1011.1 in /  34235.8 hPa East 8.4 mph /  13.5 km/h 13.7 mph /  22 km/h 83 % 0.5 in /  12.7 mm
09:44 -0.3 °F /  -17.9 °C -2.8 °F /  -19.3 °C 1011.1 in /  34235.8 hPa East 9.0 mph /  14.5 km/h 14.0 mph /  22.5 km/h 83 % 0.5 in /  12.7 mm
09:49 -0.3 °F /  -17.9 °C -2.8 °F /  -19.3 °C 1011.1 in /  34235.8 hPa East 9.0 mph /  14.5 km/h 16.6 mph /  26.7 km/h 83 % 0.5 in /  12.7 mm
09:54 -0.3 °F /  -17.9 °C -2.8 °F /  -19.3 °C 1011.1 in /  34235.8 hPa ENE 8.5 mph /  13.7 km/h 16.6 mph /  26.7 km/h 83 % 0.5 in /  12.7 mm
09:59 -0.3 °F /  -17.9 °C -2.8 °F /  -19.3 °C 1011.1 in /  34235.8 hPa NE 8.0 mph /  12.9 km/h 12.6 mph /  20.3 km/h 83 % 0.5 in /  12.7 mm
10:05 -0.3 °F /  -17.9 °C -2.8 °F /  -19.3 °C 1011.1 in /  34235.8 hPa ENE 7.6 mph /  12.2 km/h 15.4 mph /  24.8 km/h 83 % 0.5 in /  12.7 mm
10:15 -0.2 °F /  -17.9 °C -2.7 °F /  -19.3 °C 1011.1 in /  34235.8 hPa NE 9.7 mph /  15.6 km/h 14.8 mph /  23.8 km/h 83 % 0.5 in /  12.7 mm
10:20 -0.2 °F /  -17.9 °C -2.7 °F /  -19.3 °C 1011.1 in /  34235.8 hPa NE 8.4 mph /  13.5 km/h 13.7 mph /  22 km/h 83 % 0.5 in /  12.7 mm
10:25 -0.1 °F /  -17.8 °C -2.7 °F /  -19.3 °C 1011.1 in /  34235.8 hPa ENE 5.1 mph /  8.2 km/h 15.8 mph /  25.4 km/h 83 % 0.8 in /  20.32 mm
10:30 0.0 °F /  -17.8 °C -2.6 °F /  -19.2 °C 1011.1 in /  34235.8 hPa ENE 5.5 mph /  8.9 km/h 15.8 mph /  25.4 km/h 83 % 0.8 in /  20.32 mm
10:35 0.1 °F /  -17.7 °C -2.4 °F /  -19.1 °C 1011.1 in /  34235.8 hPa East 5.6 mph /  9 km/h 9.7 mph /  15.6 km/h 83 % 0.8 in /  20.32 mm
10:40 0.1 °F /  -17.7 °C -2.4 °F /  -19.1 °C 1011.1 in /  34235.8 hPa East 5.3 mph /  8.5 km/h 9.7 mph /  15.6 km/h 83 % 0.8 in /  20.32 mm
10:45 0.1 °F /  -17.7 °C -2.4 °F /  -19.1 °C 1011.1 in /  34235.8 hPa East 6.0 mph /  9.7 km/h 10.1 mph /  16.3 km/h 83 % 0.8 in /  20.32 mm
10:50 0.1 °F /  -17.7 °C -2.4 °F /  -19.1 °C 1011.1 in /  34235.8 hPa ENE 7.2 mph /  11.6 km/h 14.8 mph /  23.8 km/h 83 % 0.8 in /  20.32 mm
10:55 0.2 °F /  -17.7 °C -2.3 °F /  -19.1 °C 1011.1 in /  34235.8 hPa East 6.1 mph /  9.8 km/h 14.8 mph /  23.8 km/h 83 % 0.8 in /  20.32 mm
11:00 0.2 °F /  -17.7 °C -2.3 °F /  -19.1 °C 1011.1 in /  34235.8 hPa East 4.5 mph /  7.2 km/h 9.7 mph /  15.6 km/h 83 % 0.8 in /  20.32 mm
11:05 0.3 °F /  -17.6 °C -2.2 °F /  -19 °C 1011.1 in /  34235.8 hPa ESE 5.0 mph /  8 km/h 9.7 mph /  15.6 km/h 83 % 0.8 in /  20.32 mm
11:10 0.4 °F /  -17.6 °C -2.2 °F /  -19 °C 1012.1 in /  34269.7 hPa ESE 3.9 mph /  6.3 km/h 7.9 mph /  12.7 km/h 83 % 0.8 in /  20.32 mm
11:15 0.5 °F /  -17.5 °C -2.1 °F /  -18.9 °C 1012.1 in /  34269.7 hPa SSE 2.3 mph /  3.7 km/h 6.1 mph /  9.8 km/h 83 % 0.8 in /  20.32 mm
11:20 0.5 °F /  -17.5 °C -2.1 °F /  -18.9 °C 1012.1 in /  34269.7 hPa South 2.6 mph /  4.2 km/h 5.5 mph /  8.9 km/h 83 % 0.8 in /  20.32 mm
11:25 0.7 °F /  -17.4 °C -1.8 °F /  -18.8 °C 1012.1 in /  34269.7 hPa SE 2.7 mph /  4.3 km/h 5.0 mph /  8 km/h 83 % 0.5 in /  12.7 mm
11:30 0.8 °F /  -17.3 °C -1.8 °F /  -18.8 °C 1012.1 in /  34269.7 hPa ESE 3.7 mph /  6 km/h 17.7 mph /  28.5 km/h 83 % 0.5 in /  12.7 mm
11:35 0.8 °F /  -17.3 °C -1.8 °F /  -18.8 °C 1012.1 in /  34269.7 hPa ESE 5.5 mph /  8.9 km/h 17.7 mph /  28.5 km/h 83 % 0.5 in /  12.7 mm
11:40 0.8 °F /  -17.3 °C -1.8 °F /  -18.8 °C 1012.1 in /  34269.7 hPa East 5.0 mph /  8 km/h 7.9 mph /  12.7 km/h 83 % 0.5 in /  12.7 mm
11:45 0.9 °F /  -17.3 °C -1.7 °F /  -18.7 °C 1012.1 in /  34269.7 hPa East 4.7 mph /  7.6 km/h 6.4 mph /  10.3 km/h 83 % 0.5 in /  12.7 mm
11:50 1.0 °F /  -17.2 °C -1.6 °F /  -18.7 °C 1012.1 in /  34269.7 hPa East 5.5 mph /  8.9 km/h 10.5 mph /  16.9 km/h 83 % 0.5 in /  12.7 mm
11:55 1.0 °F /  -17.2 °C -1.7 °F /  -18.7 °C 1012.1 in /  34269.7 hPa East 4.7 mph /  7.6 km/h 10.5 mph /  16.9 km/h 82 % 0.5 in /  12.7 mm
12:00 1.2 °F /  -17.1 °C -1.6 °F /  -18.7 °C 1012.1 in /  34269.7 hPa East 4.3 mph /  6.9 km/h 9.7 mph /  15.6 km/h 82 % 0.3 in /  7.62 mm
12:05 1.3 °F /  -17.1 °C -1.4 °F /  -18.6 °C 1012.1 in /  34269.7 hPa ENE 5.3 mph /  8.5 km/h 15.8 mph /  25.4 km/h 82 % 0.3 in /  7.62 mm
12:06 1.3 °F /  -17.1 °C -1.4 °F /  -18.6 °C 1012.1 in /  34269.7 hPa ENE 5.5 mph /  8.9 km/h 15.8 mph /  25.4 km/h 82 % 0.3 in /  7.62 mm
12:11 1.2 °F /  -17.1 °C -1.6 °F /  -18.7 °C 1012.1 in /  34269.7 hPa ENE 8.2 mph /  13.2 km/h 15.8 mph /  25.4 km/h 82 % 0.3 in /  7.62 mm
12:16 1.1 °F /  -17.2 °C -1.6 °F /  -18.7 °C 1012.1 in /  34269.7 hPa East 9.2 mph /  14.8 km/h 15.8 mph /  25.4 km/h 82 % 0.3 in /  7.62 mm
12:21 1.0 °F /  -17.2 °C -1.9 °F /  -18.8 °C 1012.1 in /  34269.7 hPa East 9.0 mph /  14.5 km/h 14.0 mph /  22.5 km/h 81 % 0.3 in /  7.62 mm
12:26 0.9 °F /  -17.3 °C -2.0 °F /  -18.9 °C 1012.1 in /  34269.7 hPa ENE 9.8 mph /  15.8 km/h 17.2 mph /  27.7 km/h 81 % 0.3 in /  7.62 mm
12:31 0.9 °F /  -17.3 °C -2.0 °F /  -18.9 °C 1012.1 in /  34269.7 hPa ENE 7.6 mph /  12.2 km/h 17.2 mph /  27.7 km/h 81 % 0.3 in /  7.62 mm
12:36 0.8 °F /  -17.3 °C -2.3 °F /  -19.1 °C 1012.1 in /  34269.7 hPa ENE 6.9 mph /  11.1 km/h 13.7 mph /  22 km/h 80 % 0.3 in /  7.62 mm
12:41 0.7 °F /  -17.4 °C -2.3 °F /  -19.1 °C 1012.1 in /  34269.7 hPa ENE 7.2 mph /  11.6 km/h 24.8 mph /  39.9 km/h 80 % 0.0 in /  0 mm
12:46 0.8 °F /  -17.3 °C -2.3 °F /  -19.1 °C 1012.1 in /  34269.7 hPa NE 8.4 mph /  13.5 km/h 24.8 mph /  39.9 km/h 80 % 0.0 in /  0 mm
12:51 0.8 °F /  -17.3 °C -2.4 °F /  -19.1 °C 1012.1 in /  34269.7 hPa NE 8.7 mph /  14 km/h 13.0 mph /  20.9 km/h 79 % 0.0 in /  0 mm
12:56 0.8 °F /  -17.3 °C -2.4 °F /  -19.1 °C 1011.1 in /  34235.8 hPa NE 8.5 mph /  13.7 km/h 19.8 mph /  31.9 km/h 79 % 0.0 in /  0 mm
13:01 0.7 °F /  -17.4 °C -2.5 °F /  -19.2 °C 1011.1 in /  34235.8 hPa NNE 9.5 mph /  15.3 km/h 19.8 mph /  31.9 km/h 79 % 0.0 in /  0 mm
13:06 0.8 °F /  -17.3 °C -2.4 °F /  -19.1 °C 1011.1 in /  34235.8 hPa NNE 8.8 mph /  14.2 km/h 19.1 mph /  30.7 km/h 79 % 0.0 in /  0 mm
13:11 0.8 °F /  -17.3 °C -2.6 °F /  -19.2 °C 1012.1 in /  34269.7 hPa NE 7.7 mph /  12.4 km/h 15.8 mph /  25.4 km/h 78 % 0.0 in /  0 mm
13:16 0.9 °F /  -17.3 °C -2.5 °F /  -19.2 °C 1012.1 in /  34269.7 hPa ENE 7.1 mph /  11.4 km/h 11.9 mph /  19.2 km/h 78 % 0.0 in /  0 mm
13:21 0.8 °F /  -17.3 °C -2.6 °F /  -19.2 °C 1012.1 in /  34269.7 hPa NE 7.9 mph /  12.7 km/h 27.7 mph /  44.6 km/h 78 % 0.0 in /  0 mm
13:26 0.8 °F /  -17.3 °C -2.6 °F /  -19.2 °C 1012.1 in /  34269.7 hPa NE 7.9 mph /  12.7 km/h 27.7 mph /  44.6 km/h 78 % 0.0 in /  0 mm
13:31 0.7 °F /  -17.4 °C -2.9 °F /  -19.4 °C 1012.1 in /  34269.7 hPa NNE 8.4 mph /  13.5 km/h 16.6 mph /  26.7 km/h 77 % 0.0 in /  0 mm
13:36 0.7 °F /  -17.4 °C -2.9 °F /  -19.4 °C 1012.1 in /  34269.7 hPa NNE 9.0 mph /  14.5 km/h 16.6 mph /  26.7 km/h 77 % 0.0 in /  0 mm
13:41 0.7 °F /  -17.4 °C -2.9 °F /  -19.4 °C 1012.1 in /  34269.7 hPa NE 9.7 mph /  15.6 km/h 16.6 mph /  26.7 km/h 77 % 0.0 in /  0 mm
13:46 0.7 °F /  -17.4 °C -3.1 °F /  -19.5 °C 1012.1 in /  34269.7 hPa NE 10.1 mph /  16.3 km/h 16.6 mph /  26.7 km/h 76 % 0.0 in /  0 mm
13:51 0.7 °F /  -17.4 °C -3.1 °F /  -19.5 °C 1012.1 in /  34269.7 hPa NE 8.8 mph /  14.2 km/h 17.7 mph /  28.5 km/h 76 % 0.0 in /  0 mm
13:56 0.8 °F /  -17.3 °C -2.9 °F /  -19.4 °C 1012.1 in /  34269.7 hPa NE 7.7 mph /  12.4 km/h 17.7 mph /  28.5 km/h 76 % 0.0 in /  0 mm
14:01 0.7 °F /  -17.4 °C -3.1 °F /  -19.5 °C 1012.1 in /  34269.7 hPa NE 8.2 mph /  13.2 km/h 21.2 mph /  34.1 km/h 76 % 0.0 in /  0 mm
14:06 0.7 °F /  -17.4 °C -3.1 °F /  -19.5 °C 1012.1 in /  34269.7 hPa NNE 8.7 mph /  14 km/h 21.2 mph /  34.1 km/h 76 % 0.0 in /  0 mm
14:11 0.7 °F /  -17.4 °C -3.2 °F /  -19.6 °C 1012.1 in /  34269.7 hPa NE 8.2 mph /  13.2 km/h 16.9 mph /  27.2 km/h 75 % 0.0 in /  0 mm
14:16 0.7 °F /  -17.4 °C -3.2 °F /  -19.6 °C 1012.1 in /  34269.7 hPa NE 7.7 mph /  12.4 km/h 16.9 mph /  27.2 km/h 75 % 0.0 in /  0 mm
14:21 0.7 °F /  -17.4 °C -3.2 °F /  -19.6 °C 1012.1 in /  34269.7 hPa ENE 8.0 mph /  12.9 km/h 19.1 mph /  30.7 km/h 75 % 0.0 in /  0 mm
14:26 0.7 °F /  -17.4 °C -3.2 °F /  -19.6 °C 1012.1 in /  34269.7 hPa ENE 8.7 mph /  14 km/h 19.1 mph /  30.7 km/h 75 % 0.0 in /  0 mm
14:31 0.6 °F /  -17.4 °C -3.3 °F /  -19.6 °C 1012.1 in /  34269.7 hPa ENE 9.0 mph /  14.5 km/h 15.8 mph /  25.4 km/h 75 % 0.0 in /  0 mm
14:36 0.6 °F /  -17.4 °C -3.5 °F /  -19.7 °C 1012.1 in /  34269.7 hPa ENE 8.4 mph /  13.5 km/h 15.8 mph /  25.4 km/h 74 % 0.0 in /  0 mm
14:41 0.6 °F /  -17.4 °C -3.5 °F /  -19.7 °C 1012.1 in /  34269.7 hPa ENE 7.9 mph /  12.7 km/h 13.7 mph /  22 km/h 74 % 0.0 in /  0 mm
14:46 0.6 °F /  -17.4 °C -3.5 °F /  -19.7 °C 1012.1 in /  34269.7 hPa ENE 7.6 mph /  12.2 km/h 13.7 mph /  22 km/h 74 % 0.0 in /  0 mm
14:51 0.5 °F /  -17.5 °C -3.6 °F /  -19.8 °C 1012.1 in /  34269.7 hPa East 7.6 mph /  12.2 km/h 13.7 mph /  22 km/h 74 % 0.0 in /  0 mm
14:56 0.5 °F /  -17.5 °C -3.6 °F /  -19.8 °C 1012.1 in /  34269.7 hPa ENE 8.0 mph /  12.9 km/h 13.7 mph /  22 km/h 74 % 0.0 in /  0 mm
15:01 0.5 °F /  -17.5 °C -3.6 °F /  -19.8 °C 1012.1 in /  34269.7 hPa ENE 10.5 mph /  16.9 km/h 27.0 mph /  43.5 km/h 74 % 0.0 in /  0 mm
15:06 0.5 °F /  -17.5 °C -3.6 °F /  -19.8 °C 1012.1 in /  34269.7 hPa ENE 10.6 mph /  17.1 km/h 27.0 mph /  43.5 km/h 74 % 0.0 in /  0 mm
15:11 0.5 °F /  -17.5 °C -3.6 °F /  -19.8 °C 1012.1 in /  34269.7 hPa NE 7.2 mph /  11.6 km/h 16.6 mph /  26.7 km/h 74 % 0.0 in /  0 mm
15:16 0.4 °F /  -17.6 °C -3.7 °F /  -19.8 °C 1012.1 in /  34269.7 hPa NE 8.4 mph /  13.5 km/h 19.5 mph /  31.4 km/h 74 % 0.0 in /  0 mm
15:21 0.4 °F /  -17.6 °C -3.7 °F /  -19.8 °C 1012.1 in /  34269.7 hPa ENE 9.7 mph /  15.6 km/h 19.5 mph /  31.4 km/h 74 % 0.0 in /  0 mm
15:26 0.4 °F /  -17.6 °C -3.9 °F /  -19.9 °C 1012.1 in /  34269.7 hPa ENE 10.5 mph /  16.9 km/h 15.4 mph /  24.8 km/h 73 % 0.0 in /  0 mm
15:31 0.4 °F /  -17.6 °C -3.9 °F /  -19.9 °C 1012.1 in /  34269.7 hPa ENE 11.6 mph /  18.7 km/h 23.0 mph /  37 km/h 73 % 0.0 in /  0 mm
15:36 0.4 °F /  -17.6 °C -3.9 °F /  -19.9 °C 1012.1 in /  34269.7 hPa ENE 10.0 mph /  16.1 km/h 23.0 mph /  37 km/h 73 % 0.0 in /  0 mm
15:41 0.4 °F /  -17.6 °C -3.9 °F /  -19.9 °C 1012.1 in /  34269.7 hPa ENE 10.3 mph /  16.6 km/h 17.7 mph /  28.5 km/h 73 % 0.0 in /  0 mm
15:46 0.4 °F /  -17.6 °C -3.9 °F /  -19.9 °C 1012.1 in /  34269.7 hPa NE 11.4 mph /  18.3 km/h 20.9 mph /  33.6 km/h 73 % 0.0 in /  0 mm
15:51 0.4 °F /  -17.6 °C -3.9 °F /  -19.9 °C 1012.1 in /  34269.7 hPa ENE 10.0 mph /  16.1 km/h 20.9 mph /  33.6 km/h 73 % 0.0 in /  0 mm
15:56 0.4 °F /  -17.6 °C -3.9 °F /  -19.9 °C 1012.1 in /  34269.7 hPa NE 8.0 mph /  12.9 km/h 17.2 mph /  27.7 km/h 73 % 0.0 in /  0 mm
16:01 0.4 °F /  -17.6 °C -3.9 °F /  -19.9 °C 1012.1 in /  34269.7 hPa NE 7.2 mph /  11.6 km/h 15.8 mph /  25.4 km/h 73 % 0.0 in /  0 mm
16:06 0.4 °F /  -17.6 °C -3.9 °F /  -19.9 °C 1012.1 in /  34269.7 hPa NE 7.7 mph /  12.4 km/h 15.8 mph /  25.4 km/h 73 % 0.0 in /  0 mm
16:11 0.4 °F /  -17.6 °C -3.9 °F /  -19.9 °C 1012.1 in /  34269.7 hPa NE 8.4 mph /  13.5 km/h 16.3 mph /  26.2 km/h 73 % 0.0 in /  0 mm
16:16 0.3 °F /  -17.6 °C -4.0 °F /  -20 °C 1012.1 in /  34269.7 hPa NE 8.7 mph /  14 km/h 27.7 mph /  44.6 km/h 73 % 0.0 in /  0 mm
16:21 0.3 °F /  -17.6 °C -4.0 °F /  -20 °C 1012.1 in /  34269.7 hPa NE 10.6 mph /  17.1 km/h 27.7 mph /  44.6 km/h 73 % 0.0 in /  0 mm
16:26 0.3 °F /  -17.6 °C -4.0 °F /  -20 °C 1012.1 in /  34269.7 hPa NE 11.4 mph /  18.3 km/h 27.7 mph /  44.6 km/h 73 % 0.0 in /  0 mm
16:31 0.3 °F /  -17.6 °C -4.0 °F /  -20 °C 1012.1 in /  34269.7 hPa NE 9.8 mph /  15.8 km/h 27.7 mph /  44.6 km/h 73 % 0.0 in /  0 mm
16:36 0.3 °F /  -17.6 °C -4.0 °F /  -20 °C 1012.1 in /  34269.7 hPa ENE 8.7 mph /  14 km/h 14.8 mph /  23.8 km/h 73 % 0.0 in /  0 mm
16:41 0.3 °F /  -17.6 °C -4.0 °F /  -20 °C 1013.1 in /  34303.6 hPa ENE 8.2 mph /  13.2 km/h 15.4 mph /  24.8 km/h 73 % 0.0 in /  0 mm
16:46 0.3 °F /  -17.6 °C -4.0 °F /  -20 °C 1013.1 in /  34303.6 hPa ENE 8.4 mph /  13.5 km/h 19.8 mph /  31.9 km/h 73 % 0.0 in /  0 mm
16:51 0.3 °F /  -17.6 °C -4.0 °F /  -20 °C 1013.1 in /  34303.6 hPa ENE 9.3 mph /  15 km/h 19.8 mph /  31.9 km/h 73 % 0.0 in /  0 mm
16:57 0.2 °F /  -17.7 °C -4.1 °F /  -20.1 °C 1013.1 in /  34303.6 hPa NE 8.4 mph /  13.5 km/h 17.7 mph /  28.5 km/h 73 % 0.0 in /  0 mm
17:02 0.2 °F /  -17.7 °C -4.1 °F /  -20.1 °C 1013.1 in /  34303.6 hPa NE 8.2 mph /  13.2 km/h 22.7 mph /  36.5 km/h 73 % 0.0 in /  0 mm
17:07 0.2 °F /  -17.7 °C -4.1 °F /  -20.1 °C 1013.1 in /  34303.6 hPa NE 10.0 mph /  16.1 km/h 22.7 mph /  36.5 km/h 73 % 0.0 in /  0 mm
17:12 0.1 °F /  -17.7 °C -4.2 °F /  -20.1 °C 1013.1 in /  34303.6 hPa ENE 9.2 mph /  14.8 km/h 16.3 mph /  26.2 km/h 73 % 0.0 in /  0 mm
17:17 0.1 °F /  -17.7 °C -4.2 °F /  -20.1 °C 1013.1 in /  34303.6 hPa NE 8.2 mph /  13.2 km/h 16.9 mph /  27.2 km/h 73 % 0.0 in /  0 mm
17:22 0.1 °F /  -17.7 °C -4.2 °F /  -20.1 °C 1013.1 in /  34303.6 hPa NE 8.0 mph /  12.9 km/h 16.9 mph /  27.2 km/h 73 % 0.0 in /  0 mm
17:27 0.1 °F /  -17.7 °C -4.2 °F /  -20.1 °C 1013.1 in /  34303.6 hPa NE 7.9 mph /  12.7 km/h 15.8 mph /  25.4 km/h 73 % 0.0 in /  0 mm
17:32 0.1 °F /  -17.7 °C -4.2 °F /  -20.1 °C 1013.1 in /  34303.6 hPa NE 7.7 mph /  12.4 km/h 15.8 mph /  25.4 km/h 73 % 0.0 in /  0 mm
17:37 0.0 °F /  -17.8 °C -4.3 °F /  -20.2 °C 1013.1 in /  34303.6 hPa NE 8.0 mph /  12.9 km/h 19.8 mph /  31.9 km/h 73 % 0.0 in /  0 mm
17:42 0.0 °F /  -17.8 °C -4.3 °F /  -20.2 °C 1012.1 in /  34269.7 hPa NE 8.4 mph /  13.5 km/h 19.8 mph /  31.9 km/h 73 % 0.0 in /  0 mm
17:47 0.0 °F /  -17.8 °C -4.3 °F /  -20.2 °C 1012.1 in /  34269.7 hPa NE 7.2 mph /  11.6 km/h 18.3 mph /  29.5 km/h 73 % 0.0 in /  0 mm
17:52 0.0 °F /  -17.8 °C -4.3 °F /  -20.2 °C 1012.1 in /  34269.7 hPa NE 8.5 mph /  13.7 km/h 21.2 mph /  34.1 km/h 73 % 0.0 in /  0 mm
17:57 0.0 °F /  -17.8 °C -4.3 °F /  -20.2 °C 1013.1 in /  34303.6 hPa NE 7.4 mph /  11.9 km/h 21.2 mph /  34.1 km/h 73 % 0.0 in /  0 mm
Vremenska postaja Senovo
Podatki zbrani iz Weather Underground - 2.5 mb

Script developed by  Jim McMurry - jmcmurry@mwt.net Adapted for the template by  Wim van der Kuil - Leuven-Template.eu

Vremenski podatki so objavljeni na:

European Weather Network

WeatherCloud

Weather Underground

AWEKAS

HAMweather, WeatherForYou, PWS Weather

MapView

Geostik

Slovenia weather network

Oprema, ki se uporablja:

Vremenski program
Cumulus

Vremenski server
Asus

Cumulus

Asus